K6G0 weather

CLOSED Athelone Williams Memorial Airport
Davison, Michigan, United States

Public forecast

Using degrees Fahrenheit for public forecast. Weather courtesy of forecast.io.

Closest aviation weather report (METAR) to Athelone Williams Memorial Airport

Closest report is Bishop International Airport, 10.1 nm (18.8 km) WSW. Retrieved 2019/11/13 11:53 UTC (2 hours ago):

KFNT 131153Z 20005KT 10SM CLR M12/M14 A3032 RMK AO2 SLP286 70001 I6000 T11171144 11117 21172 58008

Closest aviation forecast (TAF) to Athelone Williams Memorial Airport

Closest forecast is Bishop International Airport, 10.1 nm (18.8 km) WSW. Retrieved 2019/11/13 12:42 UTC (58 minutes ago):

TAF KFNT 131139Z 1312/1412 19012KT P6SM OVC150 FM131500 20012KT P6SM OVC090 FM132000 20008KT P6SM OVC080 FM140400 18009KT 5SM -SN BKN015 OVC025